createdAt,value
2023-05-12T00:02:14.206Z,6.30
2023-05-12T00:12:18.786Z,6.50
2023-05-12T00:22:22.032Z,6.10
2023-05-12T00:32:27.397Z,6.50
2023-05-12T00:42:30.635Z,6.10
2023-05-12T00:52:35.958Z,6.70
2023-05-12T01:02:41.118Z,6.10
2023-05-12T01:12:45.898Z,6.00
2023-05-12T01:22:49.493Z,5.90
2023-05-12T01:32:54.726Z,6.10
2023-05-12T01:42:58.096Z,6.00
2023-05-12T01:53:05.790Z,5.60
2023-05-12T02:03:09.540Z,5.40
2023-05-12T02:13:14.230Z,5.80
2023-05-12T02:23:17.804Z,5.20
2023-05-12T02:33:22.976Z,5.00
2023-05-12T02:43:26.530Z,4.40
2023-05-12T02:53:32.198Z,4.80
2023-05-12T03:03:35.717Z,4.90
2023-05-12T03:13:40.562Z,4.90
2023-05-12T03:23:43.795Z,4.70
2023-05-12T03:33:49.180Z,5.00
2023-05-12T03:43:52.459Z,4.80
2023-05-12T03:53:57.042Z,5.40
2023-05-12T04:04:00.434Z,5.00
2023-05-12T04:14:05.088Z,5.20
2023-05-12T04:24:08.416Z,5.40
2023-05-12T04:34:14.703Z,5.80
2023-05-12T04:44:18.190Z,6.00
2023-05-12T04:54:23.149Z,6.30
2023-05-12T05:04:26.768Z,6.60
2023-05-12T05:14:31.531Z,6.90
2023-05-12T05:24:34.983Z,7.40
2023-05-12T05:34:39.762Z,8.20
2023-05-12T05:44:43.693Z,8.20
2023-05-12T05:54:49.144Z,9.90
2023-05-12T06:04:53.565Z,10.20
2023-05-12T06:14:58.252Z,10.60
2023-05-12T06:25:01.617Z,11.00
2023-05-12T06:35:07.222Z,11.40
2023-05-12T06:45:12.528Z,12.00
2023-05-12T06:55:20.060Z,12.90
2023-05-12T07:05:23.764Z,13.50
2023-05-12T07:15:29.631Z,14.90
2023-05-12T07:25:34.427Z,17.30
2023-05-12T07:35:39.201Z,23.40
2023-05-12T07:45:42.479Z,28.50
2023-05-12T07:55:47.286Z,30.60
2023-05-12T08:05:50.440Z,32.70
2023-05-12T08:15:55.028Z,36.50
2023-05-12T08:25:58.256Z,38.20
2023-05-12T08:36:02.970Z,40.60
2023-05-12T08:46:06.908Z,43.70
2023-05-12T09:06:19.788Z,46.70
2023-05-12T09:16:26.151Z,46.00
2023-05-12T09:26:29.949Z,48.10
2023-05-12T09:36:35.898Z,48.20
2023-05-12T09:46:40.106Z,46.30
2023-05-12T09:56:44.759Z,47.30
2023-05-12T10:06:48.382Z,42.60
2023-05-12T10:16:53.269Z,42.00
2023-05-12T10:26:57.771Z,40.90
2023-05-12T10:37:03.738Z,41.40
2023-05-12T10:47:14.694Z,35.40
2023-05-12T10:57:21.584Z,39.20
2023-05-12T11:07:27.174Z,42.20
2023-05-12T11:17:32.142Z,35.40
2023-05-12T11:27:35.940Z,31.60
2023-05-12T11:37:42.041Z,33.50
2023-05-12T11:47:45.337Z,31.10
2023-05-12T11:57:59.250Z,33.40
2023-05-12T12:08:07.063Z,37.30
2023-05-12T12:18:12.025Z,37.50
2023-05-12T12:28:15.318Z,30.90
2023-05-12T12:38:19.821Z,37.80
2023-05-12T12:48:23.304Z,38.20
2023-05-12T12:58:27.855Z,30.40
2023-05-12T13:08:31.056Z,31.60
2023-05-12T13:18:35.683Z,28.50
2023-05-12T13:28:39.115Z,24.70
2023-05-12T13:38:43.800Z,23.90
2023-05-12T13:48:47.115Z,23.10
2023-05-12T13:58:51.788Z,23.20
2023-05-12T14:08:54.970Z,22.30
2023-05-12T14:19:00.223Z,22.20
2023-05-12T14:29:03.728Z,20.70
2023-05-12T14:39:10.312Z,20.20
2023-05-12T14:49:18.547Z,19.60
2023-05-12T14:59:23.313Z,20.20
2023-05-12T15:09:26.501Z,20.50
2023-05-12T15:19:31.389Z,19.30
2023-05-12T15:29:34.521Z,18.50
2023-05-12T15:39:39.588Z,18.90
2023-05-12T15:49:42.824Z,18.60
2023-05-12T15:59:47.578Z,18.20
2023-05-12T16:09:50.705Z,18.30
2023-05-12T16:19:56.996Z,17.90
2023-05-12T16:30:00.599Z,18.00
2023-05-12T16:40:06.234Z,17.60
2023-05-12T16:50:10.496Z,17.10
2023-05-12T17:00:16.505Z,16.40
2023-05-12T17:10:19.695Z,16.00
2023-05-12T17:20:24.468Z,15.70
2023-05-12T17:30:27.992Z,15.30
2023-05-12T17:40:32.737Z,14.90
2023-05-12T17:50:36.046Z,14.40
2023-05-12T18:00:41.143Z,14.00
2023-05-12T18:10:44.410Z,13.60
2023-05-12T18:20:49.025Z,13.40
2023-05-12T18:30:53.278Z,12.90
2023-05-12T18:40:58.004Z,12.60
2023-05-12T18:51:01.356Z,12.20
2023-05-12T19:01:06.828Z,11.90
2023-05-12T19:11:10.174Z,11.60
2023-05-12T19:21:14.789Z,11.40
2023-05-12T19:31:18.114Z,11.70
2023-05-12T19:41:22.763Z,11.80
2023-05-12T19:51:26.053Z,11.70
2023-05-12T20:01:31.422Z,11.70
2023-05-12T20:11:34.737Z,11.30
2023-05-12T20:21:39.373Z,11.00
2023-05-12T20:31:42.573Z,11.40
2023-05-12T20:41:47.562Z,11.10
2023-05-12T20:51:50.809Z,11.10
2023-05-12T21:01:56.148Z,10.90
2023-05-12T21:11:59.705Z,10.60
2023-05-12T21:22:04.546Z,10.60
2023-05-12T21:32:08.634Z,10.30
2023-05-12T21:42:13.377Z,9.80
2023-05-12T21:52:16.606Z,9.50
2023-05-12T22:02:21.236Z,9.60
2023-05-12T22:12:24.467Z,9.60
2023-05-12T22:22:28.951Z,9.10
2023-05-12T22:32:32.180Z,9.20
2023-05-12T22:42:36.777Z,8.90
2023-05-12T22:52:39.999Z,8.90
2023-05-12T23:02:44.569Z,8.60
2023-05-12T23:12:47.799Z,8.50
2023-05-12T23:22:52.370Z,8.00
2023-05-12T23:32:55.682Z,8.20
2023-05-12T23:43:00.345Z,7.10
2023-05-12T23:53:03.525Z,6.50
